createdAt,value
2022-10-24T00:01:58.746Z,5.53
2022-10-24T00:05:02.443Z,7.53
2022-10-24T00:08:06.537Z,8.83
2022-10-24T00:11:11.685Z,6.03
2022-10-24T00:14:16.904Z,7.57
2022-10-24T00:17:21.246Z,7.73
2022-10-24T00:20:24.749Z,7.20
2022-10-24T00:23:28.606Z,7.83
2022-10-24T00:26:32.425Z,7.70
2022-10-24T00:29:37.693Z,5.70
2022-10-24T00:32:41.323Z,6.77
2022-10-24T00:35:45.203Z,5.53
2022-10-24T00:38:49.078Z,3.90
2022-10-24T00:41:54.422Z,4.63
2022-10-24T00:44:59.279Z,5.17
2022-10-24T00:48:02.935Z,13.73
2022-10-24T00:51:09.815Z,11.87
2022-10-24T00:54:15.622Z,11.30
2022-10-24T00:57:27.819Z,12.33
2022-10-24T01:00:35.453Z,14.23
2022-10-24T01:03:39.393Z,13.90
2022-10-24T01:06:51.334Z,12.30
2022-10-24T01:10:18.639Z,18.93
2022-10-24T01:13:34.330Z,20.90
2022-10-24T01:16:47.816Z,16.23
2022-10-24T01:20:19.025Z,13.37
2022-10-24T01:23:42.579Z,12.30
2022-10-24T01:27:21.237Z,10.60
2022-10-24T01:30:28.919Z,11.37
2022-10-24T01:33:36.670Z,11.10
2022-10-24T01:36:47.536Z,11.07
2022-10-24T01:39:54.856Z,12.23
2022-10-24T01:43:03.444Z,9.27
2022-10-24T01:46:12.939Z,12.27
2022-10-24T01:49:19.330Z,8.60
2022-10-24T01:52:25.083Z,14.47
2022-10-24T01:55:28.763Z,12.53
2022-10-24T01:58:32.203Z,12.90
2022-10-24T02:01:38.811Z,11.50
2022-10-24T02:04:48.701Z,12.80
2022-10-24T02:07:57.849Z,15.43
2022-10-24T02:11:05.775Z,14.37
2022-10-24T02:14:15.516Z,11.80
2022-10-24T02:17:21.056Z,10.13
2022-10-24T02:20:30.457Z,13.03
2022-10-24T02:23:39.581Z,33.53
2022-10-24T02:26:49.327Z,15.53
2022-10-24T02:29:58.111Z,13.57
2022-10-24T02:33:03.187Z,14.63
2022-10-24T02:36:08.905Z,10.53
2022-10-24T02:39:14.269Z,25.80
2022-10-24T02:42:23.182Z,21.63
2022-10-24T02:45:28.274Z,10.60
2022-10-24T02:48:37.445Z,8.83
2022-10-24T02:51:44.070Z,9.00
2022-10-24T02:54:47.611Z,4.20
2022-10-24T02:57:51.083Z,7.53
2022-10-24T03:00:54.644Z,8.57
2022-10-24T03:03:59.710Z,7.30
2022-10-24T03:07:03.291Z,6.97
2022-10-24T03:10:07.706Z,5.27
2022-10-24T03:13:11.316Z,9.90
2022-10-24T03:16:14.879Z,7.37
2022-10-24T03:19:20.033Z,7.33
2022-10-24T03:22:25.456Z,12.40
2022-10-24T03:25:32.304Z,10.33
2022-10-24T03:28:36.115Z,10.87
2022-10-24T03:31:39.770Z,9.50
2022-10-24T03:34:45.030Z,20.17
2022-10-24T03:37:48.872Z,17.33
2022-10-24T03:40:52.955Z,20.33
2022-10-24T03:43:56.573Z,29.53
2022-10-24T03:46:59.998Z,25.10
2022-10-24T03:50:05.935Z,25.80
2022-10-24T03:53:09.993Z,24.37
2022-10-24T03:56:14.002Z,16.10
2022-10-24T03:59:18.308Z,20.60
2022-10-24T04:02:21.997Z,14.00
2022-10-24T04:05:27.229Z,14.47
2022-10-24T04:08:30.901Z,11.63
2022-10-24T04:11:34.604Z,14.50
2022-10-24T04:14:38.279Z,18.27
2022-10-24T04:17:42.405Z,13.50
2022-10-24T04:20:47.915Z,13.87
2022-10-24T04:23:51.695Z,11.27
2022-10-24T04:26:55.455Z,12.33
2022-10-24T04:29:59.216Z,14.77
2022-10-24T04:33:03.081Z,19.07
2022-10-24T04:36:08.793Z,16.70
2022-10-24T04:39:12.463Z,17.17
2022-10-24T04:42:16.252Z,16.23
2022-10-24T04:45:20.613Z,13.23
2022-10-24T04:48:24.342Z,14.30
2022-10-24T04:51:29.432Z,12.70
2022-10-24T04:54:33.124Z,18.87
2022-10-24T04:57:36.836Z,15.83
2022-10-24T05:00:42.982Z,14.47
2022-10-24T05:03:46.715Z,20.70
2022-10-24T05:06:51.846Z,15.40
2022-10-24T05:09:55.536Z,16.93
2022-10-24T05:12:59.266Z,16.50
2022-10-24T05:16:03.991Z,20.20
2022-10-24T05:19:07.706Z,15.27
2022-10-24T05:22:12.833Z,21.97
2022-10-24T05:25:16.483Z,16.33
2022-10-24T05:28:20.172Z,23.37
2022-10-24T05:31:24.144Z,21.73
2022-10-24T05:34:28.335Z,27.10
2022-10-24T05:37:33.439Z,18.33
2022-10-24T05:40:37.145Z,18.33
2022-10-24T05:43:40.873Z,20.83
2022-10-24T05:46:44.462Z,15.03
2022-10-24T05:49:48.122Z,16.83
2022-10-24T05:52:53.253Z,20.17
2022-10-24T05:55:56.982Z,21.80
2022-10-24T05:59:00.603Z,21.43
2022-10-24T06:02:04.802Z,27.97
2022-10-24T06:05:09.559Z,25.07
2022-10-24T06:08:14.657Z,19.23
2022-10-24T06:11:18.732Z,19.40
2022-10-24T06:14:22.546Z,18.47
2022-10-24T06:17:26.691Z,13.00
2022-10-24T06:20:30.396Z,16.83
2022-10-24T06:23:35.873Z,16.97
2022-10-24T06:26:39.696Z,16.30
2022-10-24T06:29:43.676Z,11.13
2022-10-24T06:32:47.760Z,14.67
2022-10-24T06:35:51.576Z,14.60
2022-10-24T06:38:58.686Z,15.27
2022-10-24T06:42:02.777Z,13.97
2022-10-24T06:45:07.867Z,14.90
2022-10-24T06:48:11.546Z,10.80
2022-10-24T06:51:17.455Z,10.00
2022-10-24T06:54:24.184Z,12.30
2022-10-24T06:57:30.332Z,16.63
2022-10-24T07:00:34.026Z,16.47
2022-10-24T07:03:37.866Z,10.70
2022-10-24T07:06:42.063Z,11.53
2022-10-24T07:09:52.703Z,12.83
2022-10-24T07:12:56.346Z,10.07
2022-10-24T07:16:00.302Z,11.50
2022-10-24T07:19:04.562Z,10.33
2022-10-24T07:22:08.760Z,14.17
2022-10-24T07:25:13.956Z,12.17
2022-10-24T07:28:17.571Z,11.50
2022-10-24T07:31:22.636Z,8.90
2022-10-24T07:34:26.430Z,9.70
2022-10-24T07:37:30.109Z,10.83
2022-10-24T07:40:35.272Z,6.78
2022-10-24T07:43:39.313Z,10.07
2022-10-24T07:46:43.844Z,33.30
2022-10-24T07:49:47.517Z,26.13
2022-10-24T07:52:51.325Z,16.42
2022-10-24T07:55:56.343Z,9.40
2022-10-24T07:59:05.873Z,10.50
2022-10-24T08:02:14.565Z,7.82
2022-10-24T08:05:20.766Z,9.93
2022-10-24T08:08:36.654Z,12.68
2022-10-24T08:11:42.742Z,10.55
2022-10-24T08:14:46.596Z,14.35
2022-10-24T08:17:50.536Z,13.52
2022-10-24T08:21:00.083Z,13.10
2022-10-24T08:24:04.008Z,12.88
2022-10-24T08:27:09.468Z,6.90
2022-10-24T08:30:14.066Z,8.88
2022-10-24T08:33:19.569Z,11.38
2022-10-24T08:36:26.438Z,7.90
2022-10-24T08:39:30.172Z,7.68
2022-10-24T08:42:35.712Z,8.75
2022-10-24T08:45:46.342Z,12.18
2022-10-24T08:48:55.447Z,10.25
2022-10-24T08:52:02.826Z,7.70
2022-10-24T08:55:25.231Z,8.82
2022-10-24T08:58:35.768Z,9.80
2022-10-24T09:01:46.272Z,10.57
2022-10-24T09:04:56.593Z,11.75
2022-10-24T09:08:06.336Z,9.35
2022-10-24T09:11:18.125Z,12.52
2022-10-24T09:14:25.057Z,12.30
2022-10-24T09:17:33.223Z,10.80
2022-10-24T09:20:36.926Z,13.18
2022-10-24T09:23:41.126Z,9.75
2022-10-24T09:26:46.157Z,6.47
2022-10-24T09:29:51.782Z,7.60
2022-10-24T09:32:57.586Z,9.65
2022-10-24T09:36:06.244Z,15.88
2022-10-24T09:39:26.591Z,11.60
2022-10-24T09:42:30.586Z,9.27
2022-10-24T09:45:41.196Z,7.03
2022-10-24T09:48:52.883Z,11.02
2022-10-24T09:52:04.682Z,8.70
2022-10-24T09:55:18.828Z,11.85
2022-10-24T09:58:32.625Z,9.73
2022-10-24T10:01:38.397Z,8.70
2022-10-24T10:04:42.954Z,12.48
2022-10-24T10:07:48.784Z,13.07
2022-10-24T10:11:02.848Z,9.35
2022-10-24T10:14:27.782Z,8.10
2022-10-24T10:17:33.922Z,10.52
2022-10-24T10:20:42.448Z,12.32
2022-10-24T10:23:48.156Z,10.63
2022-10-24T10:26:51.852Z,9.18
2022-10-24T10:30:11.066Z,12.15
2022-10-24T10:33:21.675Z,13.65
2022-10-24T10:36:32.893Z,16.58
2022-10-24T10:40:00.290Z,8.55
2022-10-24T10:43:19.673Z,11.30
2022-10-24T10:46:38.374Z,9.20
2022-10-24T10:49:44.362Z,9.32
2022-10-24T10:52:50.617Z,11.75
2022-10-24T10:56:01.934Z,19.33
2022-10-24T10:59:20.022Z,13.27
2022-10-24T11:02:52.190Z,9.30
2022-10-24T11:06:09.862Z,9.95
2022-10-24T11:09:34.932Z,12.15
2022-10-24T11:12:41.306Z,12.00
2022-10-24T11:15:48.748Z,7.70
2022-10-24T11:18:55.747Z,9.95
2022-10-24T11:22:04.828Z,12.23
2022-10-24T11:25:19.865Z,10.18
2022-10-24T11:28:28.585Z,8.57
2022-10-24T11:31:35.582Z,13.77
2022-10-24T11:34:44.152Z,10.63
2022-10-24T11:37:52.503Z,10.23
2022-10-24T11:41:02.516Z,12.25
2022-10-24T11:44:18.323Z,8.55
2022-10-24T11:47:51.176Z,12.43
2022-10-24T11:51:00.265Z,12.90
2022-10-24T11:54:13.132Z,10.20
2022-10-24T11:57:21.912Z,8.68
2022-10-24T12:00:27.500Z,9.27
2022-10-24T12:03:57.446Z,7.13
2022-10-24T12:07:34.592Z,10.90
2022-10-24T12:11:22.882Z,8.98
2022-10-24T12:14:54.642Z,7.95
2022-10-24T12:18:06.785Z,8.43
2022-10-24T12:21:14.006Z,13.13
2022-10-24T12:24:30.424Z,9.98
2022-10-24T12:27:39.064Z,11.85
2022-10-24T12:30:44.568Z,8.85
2022-10-24T12:34:08.886Z,8.40
2022-10-24T12:37:34.845Z,11.93
2022-10-24T12:40:55.851Z,11.73
2022-10-24T12:44:41.413Z,10.57
2022-10-24T12:48:37.642Z,15.48
2022-10-24T12:51:42.942Z,13.13
2022-10-24T12:54:47.616Z,7.90
2022-10-24T12:57:52.312Z,11.82
2022-10-24T13:00:57.666Z,6.57
2022-10-24T13:04:39.238Z,12.10
2022-10-24T13:08:05.744Z,10.80
2022-10-24T13:11:27.665Z,14.90
2022-10-24T13:15:00.703Z,11.07
2022-10-24T13:18:19.497Z,13.13
2022-10-24T13:21:28.929Z,14.07
2022-10-24T13:24:37.037Z,11.68
2022-10-24T13:27:40.725Z,19.30
2022-10-24T13:30:46.053Z,12.10
2022-10-24T13:33:54.895Z,17.70
2022-10-24T13:37:06.876Z,15.10
2022-10-24T13:40:18.330Z,18.75
2022-10-24T13:43:22.846Z,16.73
2022-10-24T13:46:33.274Z,16.85
2022-10-24T13:49:41.401Z,17.45
2022-10-24T13:52:49.566Z,15.90
2022-10-24T13:55:55.542Z,14.75
2022-10-24T13:58:59.122Z,18.70
2022-10-24T14:02:07.767Z,16.13
2022-10-24T14:05:22.216Z,20.95
2022-10-24T14:08:28.614Z,19.75
2022-10-24T14:11:34.276Z,16.77
2022-10-24T14:14:41.487Z,22.85
2022-10-24T14:17:55.743Z,17.15
2022-10-24T14:21:01.418Z,16.92
2022-10-24T14:24:09.782Z,20.15
2022-10-24T14:27:15.676Z,22.30
2022-10-24T14:30:20.902Z,20.95
2022-10-24T14:33:26.706Z,18.00
2022-10-24T14:36:32.487Z,20.23
2022-10-24T14:39:37.344Z,15.85
2022-10-24T14:42:42.891Z,24.40
2022-10-24T14:46:07.652Z,32.28
2022-10-24T14:49:33.503Z,18.92
2022-10-24T14:52:38.337Z,25.08
2022-10-24T14:55:42.118Z,23.05
2022-10-24T14:58:52.636Z,27.58
2022-10-24T15:01:58.296Z,21.05
2022-10-24T15:05:28.076Z,26.77
2022-10-24T15:08:39.943Z,24.02
2022-10-24T15:11:45.446Z,36.03
2022-10-24T15:14:53.693Z,36.75
2022-10-24T15:18:00.383Z,33.03
2022-10-24T15:21:08.045Z,34.22
2022-10-24T15:24:22.885Z,31.83
2022-10-24T15:27:29.196Z,44.35
2022-10-24T15:30:37.090Z,52.15
2022-10-24T15:33:41.052Z,104.47
2022-10-24T15:36:46.342Z,57.70
2022-10-24T15:39:51.082Z,34.63
2022-10-24T15:42:54.917Z,30.65
2022-10-24T15:46:00.125Z,40.17
2022-10-24T15:49:03.863Z,32.85
2022-10-24T15:52:10.662Z,35.67
2022-10-24T15:55:19.786Z,34.60
2022-10-24T15:58:23.557Z,59.28
2022-10-24T16:01:30.993Z,57.55
2022-10-24T16:04:35.034Z,63.35
2022-10-24T16:07:40.417Z,63.53
2022-10-24T16:10:44.986Z,63.88
2022-10-24T16:13:49.596Z,65.72
2022-10-24T16:16:55.528Z,47.22
2022-10-24T16:19:59.401Z,49.88
2022-10-24T16:23:03.343Z,37.80
2022-10-24T16:26:07.355Z,68.28
2022-10-24T16:29:11.327Z,63.58
2022-10-24T16:32:16.567Z,47.17
2022-10-24T16:35:22.243Z,41.60
2022-10-24T16:38:26.046Z,49.95
2022-10-24T16:41:29.813Z,34.75
2022-10-24T16:44:37.185Z,48.03
2022-10-24T16:47:42.345Z,42.08
2022-10-24T16:50:46.667Z,50.15
2022-10-24T16:53:50.723Z,51.78
2022-10-24T16:56:54.592Z,36.40
2022-10-24T16:59:58.470Z,41.67
2022-10-24T17:03:03.587Z,46.20
2022-10-24T17:06:08.278Z,38.92
2022-10-24T17:09:11.905Z,50.03
2022-10-24T17:12:15.767Z,46.63
2022-10-24T17:15:22.408Z,47.40
2022-10-24T17:18:28.043Z,64.47
2022-10-24T17:21:31.765Z,59.97
2022-10-24T17:24:35.843Z,57.20
2022-10-24T17:27:39.592Z,65.13
2022-10-24T17:30:44.188Z,68.65
2022-10-24T17:33:49.846Z,59.40
2022-10-24T17:37:02.356Z,60.28
2022-10-24T17:40:13.486Z,108.15
2022-10-24T17:43:21.007Z,70.35
2022-10-24T17:46:24.942Z,62.03
2022-10-24T17:49:30.172Z,42.58
2022-10-24T17:52:34.277Z,48.30
2022-10-24T17:55:46.659Z,50.05
2022-10-24T17:58:51.775Z,43.90
2022-10-24T18:01:55.671Z,50.65
2022-10-24T18:05:01.095Z,49.05
2022-10-24T18:08:05.615Z,52.33
2022-10-24T18:11:10.616Z,56.38
2022-10-24T18:14:14.395Z,51.35
2022-10-24T18:17:18.102Z,55.90
2022-10-24T18:20:23.418Z,55.58
2022-10-24T18:23:27.316Z,43.00
2022-10-24T18:26:31.073Z,46.53
2022-10-24T18:29:34.948Z,47.83
2022-10-24T18:32:38.833Z,47.38
2022-10-24T18:35:44.042Z,48.67
2022-10-24T18:38:48.203Z,45.67
2022-10-24T18:41:58.302Z,53.03
2022-10-24T18:45:02.617Z,40.13
2022-10-24T18:48:07.156Z,46.85
2022-10-24T18:51:31.842Z,43.45
2022-10-24T18:54:38.775Z,43.27
2022-10-24T18:57:43.327Z,48.93
2022-10-24T19:00:48.564Z,48.40
2022-10-24T19:03:54.742Z,41.57
2022-10-24T19:07:01.811Z,44.03
2022-10-24T19:10:06.336Z,43.13
2022-10-24T19:13:10.876Z,46.00
2022-10-24T19:16:20.665Z,49.10
2022-10-24T19:19:29.224Z,46.42
2022-10-24T19:22:34.526Z,50.67
2022-10-24T19:25:38.225Z,41.50
2022-10-24T19:28:41.894Z,43.07
2022-10-24T19:31:45.893Z,37.87
2022-10-24T19:34:49.623Z,41.67
2022-10-24T19:37:54.654Z,31.40
2022-10-24T19:40:58.692Z,36.90
2022-10-24T19:44:02.303Z,36.07
2022-10-24T19:47:06.087Z,36.08
2022-10-24T19:50:12.563Z,34.00
2022-10-24T19:53:17.986Z,29.17
2022-10-24T19:56:25.206Z,27.97
2022-10-24T19:59:33.994Z,31.77
2022-10-24T20:02:37.843Z,34.40
2022-10-24T20:05:42.586Z,35.00
2022-10-24T20:08:49.523Z,27.37
2022-10-24T20:11:53.173Z,31.17
2022-10-24T20:14:56.976Z,27.13
2022-10-24T20:18:00.673Z,27.40
2022-10-24T20:21:06.323Z,32.73
2022-10-24T20:24:11.878Z,28.47
2022-10-24T20:27:15.623Z,26.07
2022-10-24T20:30:19.482Z,25.07
2022-10-24T20:33:23.716Z,26.20
2022-10-24T20:36:27.546Z,23.60
2022-10-24T20:39:32.695Z,23.73
2022-10-24T20:42:36.355Z,27.50
2022-10-24T20:45:43.082Z,27.50
2022-10-24T20:48:46.966Z,25.37
2022-10-24T20:51:50.712Z,19.53
2022-10-24T20:54:55.772Z,21.40
2022-10-24T20:57:59.956Z,22.97
2022-10-24T21:01:08.005Z,21.10
2022-10-24T21:04:13.660Z,23.27
2022-10-24T21:07:19.546Z,24.43
2022-10-24T21:10:24.736Z,24.60
2022-10-24T21:13:28.566Z,21.30
2022-10-24T21:16:32.532Z,21.03
2022-10-24T21:19:36.132Z,24.00
2022-10-24T21:22:40.011Z,19.90
2022-10-24T21:25:45.279Z,21.33
2022-10-24T21:28:49.336Z,18.23
2022-10-24T21:31:55.475Z,20.80
2022-10-24T21:34:59.165Z,16.83
2022-10-24T21:38:02.748Z,15.43
2022-10-24T21:41:09.856Z,20.30
2022-10-24T21:44:14.759Z,12.63
2022-10-24T21:47:18.498Z,16.43
2022-10-24T21:50:22.511Z,14.43
2022-10-24T21:53:26.189Z,20.93
2022-10-24T21:56:35.722Z,18.70
2022-10-24T21:59:39.413Z,17.03
2022-10-24T22:02:43.205Z,14.43
2022-10-24T22:05:53.502Z,14.67
2022-10-24T22:08:57.683Z,13.30
2022-10-24T22:12:02.844Z,19.70
2022-10-24T22:15:09.594Z,12.77
2022-10-24T22:18:13.453Z,20.37
2022-10-24T22:21:24.533Z,19.87
2022-10-24T22:24:28.342Z,22.67
2022-10-24T22:27:33.553Z,17.50
2022-10-24T22:30:37.519Z,22.73
2022-10-24T22:33:42.259Z,22.00
2022-10-24T22:36:59.195Z,22.83
2022-10-24T22:40:03.513Z,25.63
2022-10-24T22:43:10.935Z,20.20
2022-10-24T22:46:29.739Z,19.80
2022-10-24T22:49:45.733Z,19.50
2022-10-24T22:52:50.063Z,18.57
2022-10-24T22:56:14.783Z,24.80
2022-10-24T22:59:20.733Z,25.00
2022-10-24T23:02:33.394Z,23.20
2022-10-24T23:05:43.467Z,25.10
2022-10-24T23:08:47.411Z,24.20
2022-10-24T23:11:51.680Z,23.37
2022-10-24T23:14:57.610Z,24.63
2022-10-24T23:18:01.843Z,23.67
2022-10-24T23:21:17.612Z,25.40
2022-10-24T23:24:21.906Z,23.60
2022-10-24T23:27:34.183Z,25.00
2022-10-24T23:30:40.113Z,34.93
2022-10-24T23:33:44.529Z,27.43
2022-10-24T23:36:49.143Z,24.57
2022-10-24T23:39:53.543Z,23.87
2022-10-24T23:42:58.119Z,24.77
2022-10-24T23:46:11.939Z,21.53
2022-10-24T23:49:26.854Z,20.97
2022-10-24T23:52:37.333Z,30.17
2022-10-24T23:55:41.760Z,21.47
2022-10-24T23:58:45.595Z,21.73
